Time;durP1;ratioP1;P1;durP2;ratioP2;P2;SDS_P1;SDS_P2;PMS_P1;PMS_P2;Temp;Humidity;BMP_temperature;BMP_pressure;BME280_temperature;BME280_humidity;BME280_pressure;Samples;Min_cycle;Max_cycle;Signal;HPM_P1;HPM_P2
2023/07/13 00:02:19;;;;;;;5.75;3.30;;;;;;;23.68;45.78;94215.41;5066649;28;20093;-76
2023/07/13 00:04:47;;;;;;;9.13;3.35;;;;;;;23.64;46.19;94212.69;5066609;28;20358;-76
2023/07/13 00:07:14;;;;;;;8.82;3.42;;;;;;;23.66;44.32;94215.03;5066400;28;20028;-76
2023/07/13 00:09:40;;;;;;;9.18;3.65;;;;;;;23.70;45.07;94207.66;5066476;28;20025;-76
2023/07/13 00:12:21;;;;;;;12.07;3.05;;;;;;;23.70;45.95;94208.41;5066896;28;20059;-76
2023/07/13 00:14:46;;;;;;;8.90;3.30;;;;;;;23.59;46.63;94205.69;5066616;28;20219;-76
2023/07/13 00:17:13;;;;;;;7.78;3.65;;;;;;;23.49;46.77;94209.19;5066341;28;20029;-76
2023/07/13 00:19:38;;;;;;;12.40;3.80;;;;;;;23.43;46.77;94202.56;5066453;28;20080;-76
2023/07/13 00:22:04;;;;;;;16.20;3.45;;;;;;;23.42;47.40;94199.06;5065050;28;20021;-76
2023/07/13 00:24:29;;;;;;;14.45;3.80;;;;;;;23.41;48.09;94199.47;5066365;28;20025;-76
2023/07/13 00:26:55;;;;;;;10.15;3.53;;;;;;;23.33;48.49;94201.38;5066383;28;20021;-75
2023/07/13 00:30:15;;;;;;;11.40;4.18;;;;;;;23.28;48.53;94199.03;5065887;28;20021;-76
2023/07/13 00:32:41;;;;;;;9.30;3.90;;;;;;;23.19;48.96;94199.41;5065048;28;20231;-76
2023/07/13 00:35:07;;;;;;;7.35;3.45;;;;;;;23.05;49.11;94207.53;5065154;28;20020;-76
2023/07/13 00:37:33;;;;;;;12.57;4.57;;;;;;;22.99;49.67;94204.38;5065166;28;20091;-76
2023/07/13 00:39:58;;;;;;;6.53;3.33;;;;;;;22.96;50.05;94199.72;5065855;28;20421;-76
2023/07/13 00:42:31;;;;;;;7.95;3.40;;;;;;;22.95;50.24;94203.59;5065981;28;20024;-76
2023/07/13 00:45:20;;;;;;;5.32;3.00;;;;;;;22.87;50.52;94199.28;5066018;28;20101;-75
2023/07/13 00:47:46;;;;;;;11.38;4.00;;;;;;;22.81;50.89;94211.69;5055607;28;20327;-76
2023/07/13 00:50:15;;;;;;;8.05;3.00;;;;;;;22.77;51.38;94208.19;5065871;28;20035;-76
2023/07/13 00:52:45;;;;;;;9.20;3.45;;;;;;;22.62;52.03;94208.13;5065718;28;20063;-76
2023/07/13 00:55:12;;;;;;;8.35;4.00;;;;;;;22.64;51.84;94203.09;5065324;28;20112;-76
2023/07/13 00:57:38;;;;;;;12.13;3.92;;;;;;;22.59;52.32;94200.75;5066013;28;20025;-75
2023/07/13 01:00:08;;;;;;;6.60;3.28;;;;;;;22.50;52.48;94207.69;5065323;28;20025;-75
2023/07/13 01:02:35;;;;;;;10.10;4.28;;;;;;;22.40;53.01;94190.94;5065768;28;20070;-75
2023/07/13 01:05:01;;;;;;;7.22;3.85;;;;;;;22.34;52.88;94195.19;5065537;28;20040;-75
2023/07/13 01:07:27;;;;;;;11.00;3.90;;;;;;;22.33;52.83;94190.16;5064293;28;20033;-76
2023/07/13 01:09:52;;;;;;;8.60;3.90;;;;;;;22.28;52.85;94185.06;5065696;28;20025;-75
2023/07/13 01:12:18;;;;;;;15.05;4.40;;;;;;;22.23;52.74;94189.69;5065578;28;20222;-76
2023/07/13 01:14:43;;;;;;;14.48;3.97;;;;;;;22.26;53.51;94187.38;5065466;28;20062;-78
2023/07/13 01:17:11;;;;;;;8.32;3.90;;;;;;;22.24;53.92;94185.81;5065308;28;20318;-75
2023/07/13 01:19:45;;;;;;;8.40;3.47;;;;;;;22.18;53.68;94190.00;5065030;28;20222;-75
2023/07/13 01:22:14;;;;;;;10.82;3.72;;;;;;;22.15;53.44;94190.78;5065303;28;20076;-75
2023/07/13 01:24:42;;;;;;;11.00;3.95;;;;;;;22.09;53.79;94189.59;5065311;28;20021;-75
2023/07/13 01:27:09;;;;;;;5.20;3.10;;;;;;;22.05;54.50;94188.78;5065054;28;20021;-75
2023/07/13 01:29:41;;;;;;;6.45;3.55;;;;;;;22.02;53.51;94184.09;5064686;28;20025;-75
2023/07/13 01:32:09;;;;;;;11.98;3.65;;;;;;;21.97;54.43;94187.19;5065296;28;20021;-75
2023/07/13 01:34:35;;;;;;;8.85;3.65;;;;;;;21.76;54.10;94185.88;5064986;28;20093;-76
2023/07/13 01:37:00;;;;;;;9.10;3.60;;;;;;;21.73;54.57;94183.91;5064953;28;20028;-75
2023/07/13 01:39:26;;;;;;;9.50;3.60;;;;;;;21.79;55.23;94185.09;5064973;28;20267;-75
2023/07/13 01:41:51;;;;;;;6.22;3.42;;;;;;;21.76;54.82;94180.44;5065042;28;20033;-75
2023/07/13 01:44:17;;;;;;;11.32;3.85;;;;;;;21.80;54.63;94189.38;5064839;28;20048;-75
2023/07/13 01:46:42;;;;;;;8.73;3.42;;;;;;;21.80;55.48;94183.97;5065228;28;20037;-76
2023/07/13 01:49:08;;;;;;;9.25;4.05;;;;;;;21.75;55.21;94181.59;5064944;28;20025;-75
2023/07/13 01:51:33;;;;;;;6.20;3.22;;;;;;;21.77;55.17;94176.56;5064852;28;20021;-75
2023/07/13 01:53:58;;;;;;;7.03;3.97;;;;;;;21.77;55.73;94184.69;5064431;28;20037;-75
2023/07/13 01:56:24;;;;;;;10.25;3.53;;;;;;;21.74;56.33;94180.03;5064648;28;20100;-75
2023/07/13 01:58:49;;;;;;;6.88;3.30;;;;;;;21.73;56.29;94181.19;5064278;28;20013;-76
2023/07/13 02:01:15;;;;;;;11.82;3.63;;;;;;;21.72;56.56;94187.78;5064659;28;20063;-76
2023/07/13 02:03:40;;;;;;;7.43;3.85;;;;;;;21.66;56.84;94183.06;5064777;28;20323;-76
2023/07/13 02:06:06;;;;;;;10.13;4.15;;;;;;;21.69;58.00;94193.94;5064282;28;20028;-75
2023/07/13 02:08:33;;;;;;;4.95;3.00;;;;;;;21.58;58.08;94188.44;5064079;28;20092;-75
2023/07/13 02:10:58;;;;;;;9.02;3.45;;;;;;;21.46;57.25;94186.00;5063525;28;20025;-76
2023/07/13 02:13:23;;;;;;;8.43;3.63;;;;;;;21.50;58.04;94188.75;5064219;28;20021;-76
2023/07/13 02:15:52;;;;;;;13.23;3.90;;;;;;;21.48;57.76;94188.34;5064373;28;20028;-76
2023/07/13 02:18:18;;;;;;;7.32;3.60;;;;;;;21.44;57.88;94194.50;5064076;28;20340;-76
2023/07/13 02:20:43;;;;;;;11.38;3.95;;;;;;;21.43;57.83;94197.59;5064042;28;20020;-76
2023/07/13 02:23:09;;;;;;;17.55;4.93;;;;;;;21.42;58.43;94190.59;5064380;28;20029;-76
2023/07/13 02:25:34;;;;;;;9.20;3.83;;;;;;;21.38;59.00;94187.84;5064305;28;20021;-76
2023/07/13 02:28:00;;;;;;;11.48;4.30;;;;;;;21.32;58.05;94189.34;5064026;28;20033;-76
2023/07/13 02:30:29;;;;;;;8.48;3.92;;;;;;;21.28;57.45;94206.72;5063965;28;20021;-76
2023/07/13 02:32:58;;;;;;;7.85;3.90;;;;;;;21.27;57.61;94205.97;5063948;28;20258;-76
2023/07/13 02:35:23;;;;;;;8.65;3.85;;;;;;;21.23;57.00;94194.31;5063507;28;20035;-76
2023/07/13 02:37:48;;;;;;;7.38;4.03;;;;;;;21.24;57.95;94212.88;5063765;28;20268;-76
2023/07/13 02:40:14;;;;;;;8.10;4.00;;;;;;;21.20;58.94;94205.88;5063596;28;20021;-76
2023/07/13 02:42:40;;;;;;;10.43;3.88;;;;;;;21.14;57.74;94193.81;5064027;28;20070;-76
2023/07/13 02:45:07;;;;;;;11.65;3.97;;;;;;;21.16;57.88;94200.41;5063939;28;20017;-76
2023/07/13 02:47:33;;;;;;;10.13;4.40;;;;;;;21.10;58.06;94190.28;5063635;28;20100;-76
2023/07/13 02:49:58;;;;;;;12.85;4.93;;;;;;;21.16;58.87;94195.00;5063471;28;20082;-81
2023/07/13 02:52:24;;;;;;;7.65;3.72;;;;;;;21.13;58.18;94184.91;5063495;28;20327;-76
2023/07/13 02:54:50;;;;;;;8.45;4.75;;;;;;;21.15;59.60;94192.69;5063284;28;20045;-75
2023/07/13 02:57:15;;;;;;;9.75;3.88;;;;;;;21.12;59.00;94198.81;5063239;28;20039;-75
2023/07/13 02:59:41;;;;;;;15.57;4.68;;;;;;;21.11;59.79;94191.88;5063255;28;20186;-76
2023/07/13 03:02:06;;;;;;;7.93;4.38;;;;;;;21.08;59.80;94195.31;5063560;28;20032;-75
2023/07/13 03:04:32;;;;;;;7.95;4.25;;;;;;;21.04;60.14;94198.78;5063163;28;20023;-75
2023/07/13 03:06:57;;;;;;;14.23;4.63;;;;;;;21.01;60.16;94204.13;5062240;28;20092;-75
2023/07/13 03:09:24;;;;;;;9.30;4.45;;;;;;;20.95;59.80;94200.97;5063004;28;20024;-75
2023/07/13 03:11:53;;;;;;;17.40;4.60;;;;;;;20.97;59.97;94203.31;5063194;28;20025;-75
2023/07/13 03:14:18;;;;;;;14.02;4.75;;;;;;;21.00;61.14;94214.22;5063229;28;20215;-74
2023/07/13 03:16:43;;;;;;;15.32;4.03;;;;;;;20.97;60.07;94214.94;5062993;28;20094;-75
2023/07/13 03:19:09;;;;;;;6.80;3.60;;;;;;;20.89;59.85;94209.81;5063203;28;20016;-75
2023/07/13 03:21:34;;;;;;;7.72;4.07;;;;;;;20.86;61.35;94219.44;5062684;28;20017;-75
2023/07/13 03:24:00;;;;;;;9.15;5.05;;;;;;;20.81;61.23;94208.94;5062885;28;20235;-75
2023/07/13 03:26:25;;;;;;;9.63;4.88;;;;;;;20.77;62.02;94206.19;5062989;28;20044;-75
2023/07/13 03:28:51;;;;;;;9.10;4.57;;;;;;;20.74;62.27;94209.66;5062724;28;20029;-75
2023/07/13 03:31:22;;;;;;;10.40;4.90;;;;;;;20.79;62.45;94213.94;5062612;28;20021;-75
2023/07/13 03:33:48;;;;;;;10.20;4.70;;;;;;;20.86;62.39;94215.97;5062769;28;20035;-75
2023/07/13 03:36:19;;;;;;;9.13;4.72;;;;;;;20.84;62.63;94221.75;5062783;28;20017;-76
2023/07/13 03:38:50;;;;;;;15.05;5.20;;;;;;;20.88;62.78;94211.72;5062500;28;20021;-74
2023/07/13 03:41:16;;;;;;;12.35;5.35;;;;;;;20.89;64.21;94217.94;5062886;28;20204;-75
2023/07/13 03:43:42;;;;;;;10.02;5.38;;;;;;;20.89;64.08;94218.72;5061498;28;20033;-75
2023/07/13 03:46:08;;;;;;;10.90;5.68;;;;;;;20.90;63.77;94225.69;5063048;28;20032;-75
2023/07/13 03:48:33;;;;;;;12.30;5.93;;;;;;;20.98;63.72;94216.47;5062530;28;20075;-74
2023/07/13 03:50:59;;;;;;;10.18;5.13;;;;;;;20.98;63.89;94215.72;5062385;28;20020;-75
2023/07/13 03:53:24;;;;;;;11.15;5.00;;;;;;;21.04;64.47;94215.03;5062546;28;20065;-75
2023/07/13 03:55:50;;;;;;;21.35;5.10;;;;;;;21.08;64.33;94214.28;5062721;28;20111;-75
2023/07/13 03:58:38;;;;;;;13.20;6.07;;;;;;;21.13;64.47;94203.09;5062386;28;20049;-75
2023/07/13 04:01:05;;;;;;;14.00;5.75;;;;;;;21.19;63.79;94204.34;5062384;28;20048;-75
2023/07/13 04:03:32;;;;;;;25.35;5.47;;;;;;;21.27;63.60;94214.09;5062505;28;20033;-75
2023/07/13 04:06:03;;;;;;;13.25;5.82;;;;;;;21.35;63.00;94210.28;5062277;28;20359;-75
2023/07/13 04:08:31;;;;;;;13.52;6.22;;;;;;;21.42;63.38;94218.50;5062540;28;20025;-74
2023/07/13 04:10:57;;;;;;;12.20;5.60;;;;;;;21.44;62.31;94213.50;5062621;28;20021;-75
2023/07/13 04:13:23;;;;;;;11.25;5.88;;;;;;;21.51;61.72;94212.00;5062582;28;20021;-75
2023/07/13 04:15:49;;;;;;;13.15;7.35;;;;;;;21.60;61.82;94220.63;5062406;28;20021;-75
2023/07/13 04:18:14;;;;;;;10.20;6.20;;;;;;;21.68;62.27;94214.09;5062275;28;20043;-75
2023/07/13 04:20:40;;;;;;;15.18;6.28;;;;;;;21.75;62.41;94207.94;5062722;28;20017;-75
2023/07/13 04:23:05;;;;;;;14.93;6.60;;;;;;;21.74;63.11;94211.81;5062774;28;20326;-75
2023/07/13 04:25:31;;;;;;;14.02;5.72;;;;;;;21.80;62.47;94211.09;5062752;28;20104;-75
2023/07/13 04:27:56;;;;;;;13.50;6.40;;;;;;;21.88;62.63;94222.00;5062231;28;20024;-75
2023/07/13 04:30:22;;;;;;;13.40;6.18;;;;;;;21.94;61.85;94231.34;5062339;28;20027;-76
2023/07/13 04:32:49;;;;;;;11.38;5.93;;;;;;;21.99;61.70;94234.50;5062316;28;20021;-76
2023/07/13 04:35:15;;;;;;;14.70;6.72;;;;;;;22.03;61.13;94229.09;5065012;28;20028;-76
2023/07/13 04:37:40;;;;;;;18.52;7.05;;;;;;;22.02;60.88;94228.31;5064854;28;20021;-75
2023/07/13 04:40:06;;;;;;;20.20;6.57;;;;;;;22.06;61.23;94238.41;5066397;28;20040;-75
2023/07/13 04:42:34;;;;;;;15.45;6.93;;;;;;;22.03;61.59;94238.00;5066058;28;20028;-76
2023/07/13 04:44:59;;;;;;;15.75;7.25;;;;;;;22.05;61.73;94245.78;5065748;28;20319;-76
2023/07/13 04:47:25;;;;;;;25.85;7.47;;;;;;;22.10;61.93;94242.69;5066014;28;20033;-76
2023/07/13 04:49:50;;;;;;;15.13;6.88;;;;;;;22.12;60.96;94245.81;5065755;28;20021;-75
2023/07/13 04:52:16;;;;;;;11.80;7.13;;;;;;;22.17;61.72;94242.75;5065845;28;20372;-75
2023/07/13 04:54:42;;;;;;;18.27;6.57;;;;;;;22.19;61.67;94239.69;5065845;28;20048;-76
2023/07/13 04:57:07;;;;;;;22.98;8.55;;;;;;;22.23;61.93;94252.13;5065746;28;20024;-76
2023/07/13 04:59:33;;;;;;;21.13;8.55;;;;;;;22.31;62.05;94244.03;5065543;28;20020;-75
2023/07/13 05:01:59;;;;;;;18.10;9.02;;;;;;;22.37;62.52;94247.97;5065580;28;20096;-75
2023/07/13 05:04:24;;;;;;;20.60;7.47;;;;;;;22.40;62.29;94247.97;5065410;28;20021;-75
2023/07/13 05:06:50;;;;;;;19.85;7.82;;;;;;;22.36;62.28;94257.25;5065599;28;20025;-75
2023/07/13 05:09:16;;;;;;;20.55;7.28;;;;;;;22.45;62.45;94249.56;5065175;28;20063;-74
2023/07/13 05:11:41;;;;;;;18.02;8.15;;;;;;;22.47;61.23;94247.25;5065258;28;20112;-74
2023/07/13 05:14:06;;;;;;;16.55;7.20;;;;;;;22.55;61.02;94246.13;5065283;28;20025;-74
2023/07/13 05:16:32;;;;;;;22.80;7.03;;;;;;;22.65;59.74;94269.06;5065332;28;20040;-74
2023/07/13 05:18:58;;;;;;;23.58;8.80;;;;;;;22.77;59.15;94270.69;5065006;28;20021;-74
2023/07/13 05:21:24;;;;;;;22.15;8.52;;;;;;;22.76;59.52;94269.91;5065182;28;20024;-74
2023/07/13 05:23:50;;;;;;;19.70;8.02;;;;;;;22.84;60.44;94276.16;5065007;28;20021;-74
2023/07/13 05:26:16;;;;;;;16.27;8.63;;;;;;;22.89;60.03;94273.06;5064897;28;20040;-74
2023/07/13 05:28:42;;;;;;;25.08;8.20;;;;;;;22.87;60.67;94267.22;5064847;28;20067;-74
2023/07/13 05:31:08;;;;;;;15.95;8.60;;;;;;;22.92;58.50;94271.50;5065065;28;20048;-74
2023/07/13 05:33:34;;;;;;;22.30;8.60;;;;;;;22.92;59.13;94277.75;5064867;28;20028;-74
2023/07/13 05:36:00;;;;;;;20.85;8.50;;;;;;;22.95;59.03;94273.50;5064926;28;20516;-74
2023/07/13 05:38:26;;;;;;;19.48;8.15;;;;;;;22.99;59.41;94275.06;5064803;28;20032;-74
2023/07/13 05:40:55;;;;;;;25.05;8.38;;;;;;;23.12;57.96;94270.09;5064788;28;20028;-74
2023/07/13 05:43:20;;;;;;;22.08;7.80;;;;;;;23.19;57.90;94277.50;5064726;28;20025;-75
2023/07/13 05:45:46;;;;;;;17.80;6.93;;;;;;;23.23;58.10;94273.63;5063327;28;20319;-74
2023/07/13 05:48:11;;;;;;;15.18;6.85;;;;;;;23.33;56.95;94282.22;5064242;28;20337;-75
2023/07/13 05:50:37;;;;;;;15.27;7.03;;;;;;;23.42;57.28;94272.50;5064691;28;20020;-75
2023/07/13 05:53:02;;;;;;;19.17;6.88;;;;;;;23.57;56.52;94277.97;5064537;28;20020;-75
2023/07/13 05:55:28;;;;;;;12.15;6.85;;;;;;;23.64;56.48;94267.88;5064354;28;20289;-75
2023/07/13 05:57:53;;;;;;;21.98;7.90;;;;;;;23.74;55.32;94266.34;5064396;28;20017;-75
2023/07/13 06:00:19;;;;;;;16.52;7.55;;;;;;;23.86;54.77;94267.19;5064409;28;20032;-74
2023/07/13 06:02:45;;;;;;;14.93;7.55;;;;;;;23.94;55.78;94279.63;5064266;28;20300;-75
2023/07/13 06:05:10;;;;;;;22.45;8.45;;;;;;;24.07;56.06;94259.00;5064054;28;20028;-75
2023/07/13 06:07:36;;;;;;;20.55;8.23;;;;;;;24.21;55.69;94253.53;5064209;28;20210;-74
2023/07/13 06:10:01;;;;;;;19.95;8.32;;;;;;;24.37;56.69;94252.38;5063938;28;20025;-75
2023/07/13 06:12:27;;;;;;;20.88;7.05;;;;;;;24.48;56.84;94252.34;5063884;28;20091;-75
2023/07/13 06:14:53;;;;;;;19.98;7.00;;;;;;;24.63;56.68;94256.63;5063639;28;20027;-75
2023/07/13 06:17:18;;;;;;;20.38;5.93;;;;;;;24.80;52.59;94263.19;5063696;28;20036;-74
2023/07/13 06:19:44;;;;;;;23.30;7.15;;;;;;;24.94;53.16;94265.88;5063944;28;20016;-74
2023/07/13 06:22:09;;;;;;;19.23;8.10;;;;;;;25.06;55.12;94274.81;5064818;28;20024;-74
2023/07/13 06:24:34;;;;;;;19.98;7.70;;;;;;;25.10;55.02;94279.06;5063763;28;20028;-74
2023/07/13 06:27:00;;;;;;;26.45;8.90;;;;;;;25.06;53.47;94277.53;5063771;28;20033;-74
2023/07/13 06:29:25;;;;;;;27.58;7.32;;;;;;;25.10;53.70;94272.84;5063496;28;20037;-73
2023/07/13 06:31:51;;;;;;;18.17;6.90;;;;;;;25.15;52.00;94275.13;5063738;28;20025;-74
2023/07/13 06:34:16;;;;;;;16.40;6.82;;;;;;;25.23;52.04;94273.97;5063811;28;20295;-74
2023/07/13 06:36:42;;;;;;;22.63;8.20;;;;;;;25.26;52.36;94273.19;5063729;28;20027;-74
2023/07/13 06:39:07;;;;;;;19.15;7.00;;;;;;;25.30;51.29;94268.47;5063556;28;20021;-75
2023/07/13 06:41:33;;;;;;;16.38;7.47;;;;;;;25.35;51.18;94270.78;5063421;28;20063;-74
2023/07/13 06:43:59;;;;;;;20.25;7.93;;;;;;;25.40;52.29;94267.66;5063432;28;20044;-74
2023/07/13 06:46:25;;;;;;;18.25;7.88;;;;;;;25.42;51.73;94270.75;5062152;28;20048;-75
2023/07/13 06:48:50;;;;;;;24.25;7.90;;;;;;;25.42;51.89;94270.75;5063150;28;20025;-76
2023/07/13 06:51:16;;;;;;;21.85;7.60;;;;;;;25.48;52.34;94264.88;5062136;28;20038;-75
2023/07/13 06:53:43;;;;;;;20.50;6.40;;;;;;;25.58;52.43;94261.31;5063104;28;20056;-75
2023/07/13 06:56:10;;;;;;;22.25;6.57;;;;;;;25.68;51.96;94255.00;5063361;28;20025;-76
2023/07/13 06:58:36;;;;;;;15.18;7.15;;;;;;;25.77;52.01;94260.03;5062740;28;20185;-78
2023/07/13 07:01:01;;;;;;;19.55;7.57;;;;;;;25.82;51.36;94263.09;5062121;28;20024;-78
2023/07/13 07:03:26;;;;;;;18.17;8.30;;;;;;;25.95;51.89;94260.69;5063135;28;20017;-78
2023/07/13 07:05:52;;;;;;;21.13;7.43;;;;;;;26.12;51.77;94264.47;5063241;28;20266;-78
2023/07/13 07:08:17;;;;;;;31.10;7.47;;;;;;;26.26;50.83;94271.75;5062939;28;20242;-78
2023/07/13 07:10:43;;;;;;;17.33;7.35;;;;;;;26.37;49.84;94277.13;5063215;28;20040;-80
2023/07/13 07:13:08;;;;;;;20.42;7.72;;;;;;;26.39;49.66;94270.06;5063291;28;20028;-79
2023/07/13 07:15:34;;;;;;;25.98;7.50;;;;;;;26.54;49.26;94270.72;5062647;28;20280;-78
2023/07/13 07:18:00;;;;;;;19.80;7.20;;;;;;;26.55;48.29;94266.81;5062294;28;20016;-79
2023/07/13 07:20:26;;;;;;;13.68;6.60;;;;;;;26.57;48.26;94264.47;5062774;28;20017;-78
2023/07/13 07:22:52;;;;;;;12.52;6.82;;;;;;;26.60;48.11;94274.59;5062201;28;20024;-78
2023/07/13 07:25:18;;;;;;;21.17;7.43;;;;;;;26.61;47.64;94269.91;5061655;28;20059;-80
2023/07/13 07:27:44;;;;;;;17.80;6.22;;;;;;;26.73;48.65;94263.16;5062762;28;20025;-80
2023/07/13 07:30:10;;;;;;;12.05;5.93;;;;;;;26.77;48.07;94267.38;5061086;28;20353;-78
2023/07/13 07:32:35;;;;;;;20.35;6.60;;;;;;;26.79;47.24;94270.50;5061282;28;20036;-80
2023/07/13 07:35:00;;;;;;;18.00;6.35;;;;;;;26.96;46.87;94267.97;5061339;28;20029;-79
2023/07/13 07:37:26;;;;;;;14.20;6.38;;;;;;;27.12;47.68;94264.66;5061124;28;20021;-82
2023/07/13 07:39:51;;;;;;;19.75;6.93;;;;;;;27.23;46.77;94248.91;5061068;28;20029;-82
2023/07/13 07:42:17;;;;;;;16.80;6.40;;;;;;;27.34;46.30;94254.25;5061205;28;20013;-81
2023/07/13 07:44:42;;;;;;;22.38;6.70;;;;;;;27.44;46.40;94256.06;5062334;28;20029;-80
2023/07/13 07:47:09;;;;;;;17.58;6.70;;;;;;;27.57;45.56;94245.31;5063243;28;20025;-81
2023/07/13 07:49:35;;;;;;;13.23;5.90;;;;;;;27.66;46.35;94248.34;5062737;28;20021;-79
2023/07/13 07:52:01;;;;;;;17.65;6.28;;;;;;;27.79;45.33;94240.31;5062534;28;20033;-81
2023/07/13 07:54:26;;;;;;;11.00;6.13;;;;;;;27.85;45.67;94249.63;5061660;28;20083;-82
2023/07/13 07:56:52;;;;;;;17.92;6.90;;;;;;;27.92;44.95;94240.53;5062694;28;20025;-85
2023/07/13 07:59:19;;;;;;;16.25;6.22;;;;;;;27.90;45.71;94242.91;5062712;28;20027;-81
2023/07/13 08:01:46;;;;;;;17.15;6.40;;;;;;;28.02;46.15;94247.81;5062476;28;20244;-82
2023/07/13 08:04:12;;;;;;;14.77;6.15;;;;;;;28.11;46.67;94242.59;5062584;28;20033;-82
2023/07/13 08:06:37;;;;;;;16.50;7.68;;;;;;;28.24;46.07;94225.53;5062928;28;20021;-79
2023/07/13 08:09:04;;;;;;;13.48;5.78;;;;;;;28.33;45.87;94220.28;5063471;28;20196;-78
2023/07/13 08:11:29;;;;;;;14.35;6.15;;;;;;;28.38;44.87;94226.06;5066311;28;20029;-80
2023/07/13 08:13:55;;;;;;;16.52;6.95;;;;;;;28.31;44.13;94214.44;5066196;28;20055;-81
2023/07/13 08:16:21;;;;;;;17.73;5.95;;;;;;;28.41;44.25;94216.22;5066566;28;20021;-81
2023/07/13 08:18:46;;;;;;;15.45;6.32;;;;;;;28.48;43.87;94213.34;5066323;28;20218;-81
2023/07/13 08:21:12;;;;;;;15.73;6.57;;;;;;;28.58;44.38;94206.16;5066385;28;20039;-82
2023/07/13 08:23:38;;;;;;;11.35;6.50;;;;;;;28.67;44.05;94213.81;5066336;28;20025;-81
2023/07/13 08:26:04;;;;;;;15.10;6.72;;;;;;;28.69;44.10;94214.19;5066343;28;20032;-82
2023/07/13 08:28:30;;;;;;;11.35;6.57;;;;;;;28.67;43.36;94209.09;5066052;28;20029;-79
2023/07/13 08:31:00;;;;;;;16.70;6.20;;;;;;;28.73;43.77;94212.13;5066103;28;20070;-80
2023/07/13 08:33:25;;;;;;;18.67;5.78;;;;;;;28.83;42.99;94211.16;5066094;28;20131;-79
2023/07/13 08:35:51;;;;;;;19.25;6.50;;;;;;;28.83;43.07;94211.16;5066206;28;20025;-81
2023/07/13 08:38:18;;;;;;;25.38;6.57;;;;;;;28.93;43.02;94214.88;5065121;28;20100;-81
2023/07/13 08:40:44;;;;;;;17.55;6.32;;;;;;;29.06;43.08;94207.56;5066184;28;20107;-79
2023/07/13 08:43:18;;;;;;;21.98;6.18;;;;;;;29.14;42.60;94197.22;5066043;28;20025;-79
2023/07/13 08:45:50;;;;;;;11.35;5.78;;;;;;;29.25;42.54;94197.78;5066088;28;20063;-79
2023/07/13 08:48:25;;;;;;;17.48;5.95;;;;;;;29.36;42.15;94200.28;5065984;28;20040;-81
2023/07/13 08:51:27;;;;;;;14.93;5.68;;;;;;;29.47;41.23;94208.28;5066198;28;20078;-81
2023/07/13 08:53:56;;;;;;;16.65;6.30;;;;;;;29.45;40.63;94197.72;5065277;28;20044;-81
2023/07/13 08:56:26;;;;;;;24.65;7.28;;;;;;;29.40;40.60;94201.75;5066017;28;20028;-78
2023/07/13 08:58:57;;;;;;;11.50;6.03;;;;;;;29.52;41.46;94203.06;5065675;28;20090;-77
2023/07/13 09:01:31;;;;;;;19.52;6.43;;;;;;;29.64;41.01;94212.63;5065802;28;20091;-78
2023/07/13 09:04:11;;;;;;;17.90;5.68;;;;;;;29.68;40.28;94213.31;5065711;28;20021;-79
2023/07/13 09:07:06;;;;;;;17.27;6.60;;;;;;;29.82;40.33;94228.72;5066788;28;20025;-84
2023/07/13 09:09:43;;;;;;;21.88;6.47;;;;;;;29.90;40.14;94221.06;5056115;28;20048;-85
2023/07/13 09:12:41;;;;;;;12.88;6.07;;;;;;;29.96;38.79;94235.81;5067699;28;20033;-83
2023/07/13 09:15:38;;;;;;;24.98;6.15;;;;;;;30.04;37.68;94239.19;5066144;28;20031;-82
2023/07/13 09:18:29;;;;;;;11.88;5.45;;;;;;;30.02;37.26;94230.59;5065712;28;20045;-84
2023/07/13 09:21:15;;;;;;;13.73;5.80;;;;;;;30.11;38.33;94234.28;5061948;28;20032;-82
2023/07/13 09:23:40;;;;;;;12.55;5.15;;;;;;;30.14;38.36;94230.66;5065541;28;20029;-77
2023/07/13 09:26:21;;;;;;;13.15;6.20;;;;;;;30.16;37.04;94236.50;5065283;28;20017;-77
2023/07/13 09:29:03;;;;;;;13.15;5.35;;;;;;;30.22;37.56;94241.50;5065413;28;20084;-77
2023/07/13 09:31:42;;;;;;;15.98;6.22;;;;;;;30.29;36.43;94238.59;5065430;28;20202;-76
2023/07/13 09:34:12;;;;;;;16.65;5.57;;;;;;;30.28;36.99;94237.03;5065369;28;20039;-76
2023/07/13 09:36:38;;;;;;;16.15;6.18;;;;;;;30.33;36.39;94233.81;5065303;28;20151;-76
2023/07/13 09:39:26;;;;;;;21.42;6.10;;;;;;;30.35;36.42;94234.91;5065125;28;20323;-77
2023/07/13 09:41:55;;;;;;;13.55;6.03;;;;;;;30.27;37.06;94230.00;5065137;28;20033;-77
2023/07/13 09:44:33;;;;;;;11.43;6.05;;;;;;;30.30;37.22;94213.41;5065051;28;20028;-77
2023/07/13 09:46:59;;;;;;;17.17;5.93;;;;;;;30.41;37.99;94221.41;5064687;28;20047;-77
2023/07/13 09:49:26;;;;;;;12.40;5.60;;;;;;;30.53;37.82;94220.69;5064205;28;20323;-77
2023/07/13 09:52:02;;;;;;;26.55;5.85;;;;;;;30.70;37.12;94220.66;5063594;28;20048;-78
2023/07/13 09:54:28;;;;;;;13.93;6.50;;;;;;;30.79;36.46;94212.53;5063148;28;20339;-78
2023/07/13 09:56:58;;;;;;;16.08;6.00;;;;;;;30.85;36.20;94208.03;5063398;28;20028;-77
2023/07/13 09:59:29;;;;;;;16.38;5.15;;;;;;;30.98;36.62;94203.38;5064776;28;20039;-78
2023/07/13 10:01:55;;;;;;;13.52;6.68;;;;;;;31.07;35.24;94202.72;5064419;28;20021;-78
2023/07/13 10:04:30;;;;;;;15.35;6.30;;;;;;;31.15;36.03;94203.31;5064261;28;20321;-77
2023/07/13 10:07:12;;;;;;;16.15;6.00;;;;;;;31.23;36.03;94182.63;5063283;28;20303;-77
2023/07/13 10:09:38;;;;;;;12.27;6.18;;;;;;;31.27;36.65;94183.28;5064296;28;20021;-77
2023/07/13 10:12:13;;;;;;;14.02;6.45;;;;;;;31.30;37.23;94174.13;5064274;28;20023;-78
2023/07/13 10:14:41;;;;;;;16.80;6.10;;;;;;;31.45;38.15;94170.97;5064387;28;20334;-78
2023/07/13 10:17:14;;;;;;;13.07;6.28;;;;;;;31.59;36.72;94173.31;5063164;28;20017;-78
2023/07/13 10:19:43;;;;;;;13.68;6.30;;;;;;;31.68;36.18;94178.91;5064224;28;20017;-83
2023/07/13 10:22:27;;;;;;;20.45;6.07;;;;;;;31.67;35.79;94176.59;5063870;28;20032;-78
2023/07/13 10:24:54;;;;;;;12.02;5.70;;;;;;;31.60;35.34;94177.59;5063962;28;20070;-78
2023/07/13 10:27:32;;;;;;;14.70;6.25;;;;;;;31.75;35.59;94175.94;5063627;28;20085;-79
2023/07/13 10:30:19;;;;;;;11.85;6.55;;;;;;;31.88;33.94;94175.16;5063769;28;20095;-78
2023/07/13 10:32:47;;;;;;;28.02;6.07;;;;;;;31.97;32.84;94175.22;5062882;28;20053;-77
2023/07/13 10:35:14;;;;;;;11.68;5.82;;;;;;;31.96;33.69;94173.69;5063671;28;20330;-77
2023/07/13 10:37:57;;;;;;;16.25;5.97;;;;;;;32.04;32.64;94163.22;5062470;28;20017;-77
2023/07/13 10:40:29;;;;;;;16.85;5.93;;;;;;;32.05;32.99;94162.78;5063399;28;20040;-77
2023/07/13 10:42:58;;;;;;;15.30;4.95;;;;;;;32.11;30.24;94155.50;5063579;28;20036;-77
2023/07/13 10:45:25;;;;;;;12.35;4.30;;;;;;;32.21;28.10;94147.31;5063500;28;20021;-77
2023/07/13 10:47:55;;;;;;;12.88;3.58;;;;;;;32.25;26.36;94145.97;5062983;28;20028;-77
2023/07/13 10:50:26;;;;;;;8.48;3.50;;;;;;;32.33;24.89;94146.50;5063281;28;20304;-77
2023/07/13 10:52:55;;;;;;;9.52;4.28;;;;;;;32.41;26.36;94138.75;5063497;28;20033;-77
2023/07/13 10:55:40;;;;;;;8.48;3.35;;;;;;;32.44;25.95;94138.59;5063010;28;20060;-77
2023/07/13 10:58:33;;;;;;;8.57;3.90;;;;;;;32.49;26.75;94132.53;5063378;28;20107;-76
2023/07/13 11:01:07;;;;;;;19.45;3.90;;;;;;;32.61;27.46;94124.66;5062693;28;20319;-77
2023/07/13 11:03:46;;;;;;;9.07;3.55;;;;;;;32.63;25.88;94122.22;5063100;28;20345;-77
2023/07/13 11:06:30;;;;;;;9.45;3.75;;;;;;;32.74;25.66;94117.09;5063176;28;20227;-81
2023/07/13 11:08:59;;;;;;;8.35;4.00;;;;;;;32.80;25.05;94120.81;5062899;28;20246;-81
2023/07/13 11:11:27;;;;;;;10.73;4.30;;;;;;;32.90;25.16;94114.13;5062760;28;20063;-82
2023/07/13 11:13:53;;;;;;;13.77;4.22;;;;;;;32.87;25.08;94103.19;5063177;28;20021;-83
2023/07/13 11:16:24;;;;;;;11.10;3.60;;;;;;;32.93;23.71;94102.19;5062824;28;20024;-77
2023/07/13 11:19:14;;;;;;;7.97;3.97;;;;;;;33.10;25.31;94093.69;5063201;28;20049;-79
2023/07/13 11:22:01;;;;;;;11.10;4.63;;;;;;;33.33;24.81;94101.44;5062628;28;20025;-79
2023/07/13 11:24:47;;;;;;;9.05;4.20;;;;;;;33.35;24.99;94093.47;5062837;28;20086;-82
2023/07/13 11:27:33;;;;;;;12.60;4.32;;;;;;;33.47;24.25;94096.59;5062724;28;20017;-83
2023/07/13 11:30:24;;;;;;;8.73;3.47;;;;;;;33.65;24.06;94076.56;5062649;28;20096;-81
2023/07/13 11:33:18;;;;;;;11.10;4.47;;;;;;;33.74;24.30;94091.16;5062606;28;20036;-81
2023/07/13 11:35:56;;;;;;;9.52;3.97;;;;;;;33.87;24.74;94093.00;5060230;28;20143;-81